首页
METAR-TAF:

METAR-TAF

机场 :

拉什特, 伊朗

纬度: 37-12N, 经度: 049-38E, 海拔: -7米

当前天气观测

该预报发布于44分钟前的08:30 UTC
风速4节,风向西
温度 7°C
湿度 100%
气压 1022 hPa
能見度: 3000
多云层高于600英尺
阴天层高于6000英尺
小毛毛雨

METAR: OIGG 180830Z 26004KT 3000 -DZ BKN006 OVC060 07/07 Q1022

时间: 12:44 (09:14 UTC)


TAF: 丢失

超过4000个机场的气象观测和天气预报(METAR&TAF报告)。

可查询的气象台以黄色和红色小点在地图上表示。

将鼠标移到小点上方,可查看气象台名称。

然后点击查看天气观测和预报。

如需切换地图:点击带黑十字的绿色按钮放大地图;点击带横线的绿色按钮缩小地图;或者点击绿色箭头查看邻近地区的地图。


METAR-TAF: